sensor_id;sensor_type;location;lat;lon;timestamp;P1;durP1;ratioP1;P2;durP2;ratioP2
69485;SDS011;56677;51.710;5.366;2023-05-07T05:14:02;2.95;;;2.40;;
69485;SDS011;56677;51.710;5.366;2023-05-07T05:16:27;4.07;;;2.10;;
69485;SDS011;56677;51.710;5.366;2023-05-07T05:18:52;3.40;;;2.40;;
69485;SDS011;56677;51.710;5.366;2023-05-07T05:21:17;4.37;;;2.30;;
69485;SDS011;56677;51.710;5.366;2023-05-07T05:23:42;3.53;;;1.83;;
69485;SDS011;56677;51.710;5.366;2023-05-07T05:26:08;4.15;;;2.00;;
69485;SDS011;56677;51.710;5.366;2023-05-07T05:28:33;3.70;;;2.00;;
69485;SDS011;56677;51.710;5.366;2023-05-07T05:30:58;3.88;;;2.00;;
69485;SDS011;56677;51.710;5.366;2023-05-07T05:33:23;4.18;;;2.65;;
69485;SDS011;56677;51.710;5.366;2023-05-07T05:35:49;4.68;;;2.20;;
69485;SDS011;56677;51.710;5.366;2023-05-07T05:38:14;2.87;;;1.90;;
69485;SDS011;56677;51.710;5.366;2023-05-07T05:40:39;2.65;;;1.80;;
69485;SDS011;56677;51.710;5.366;2023-05-07T05:43:05;4.32;;;2.22;;
69485;SDS011;56677;51.710;5.366;2023-05-07T05:45:30;3.20;;;2.20;;
69485;SDS011;56677;51.710;5.366;2023-05-07T05:47:56;4.45;;;2.10;;
69485;SDS011;56677;51.710;5.366;2023-05-07T05:50:21;3.17;;;2.00;;
69485;SDS011;56677;51.710;5.366;2023-05-07T05:52:46;3.25;;;1.92;;
69485;SDS011;56677;51.710;5.366;2023-05-07T05:55:11;4.20;;;2.03;;
69485;SDS011;56677;51.710;5.366;2023-05-07T05:57:36;3.67;;;2.10;;
69485;SDS011;56677;51.710;5.366;2023-05-07T06:00:01;2.40;;;1.70;;
69485;SDS011;56677;51.710;5.366;2023-05-07T06:02:27;3.57;;;1.90;;
69485;SDS011;56677;51.710;5.366;2023-05-07T06:04:52;3.85;;;2.13;;
69485;SDS011;56677;51.710;5.366;2023-05-07T06:07:17;2.77;;;2.10;;
69485;SDS011;56677;51.710;5.366;2023-05-07T06:09:42;2.97;;;1.92;;
69485;SDS011;56677;51.710;5.366;2023-05-07T06:12:07;3.22;;;2.05;;
69485;SDS011;56677;51.710;5.366;2023-05-07T06:14:32;3.28;;;1.63;;
69485;SDS011;56677;51.710;5.366;2023-05-07T06:16:57;5.90;;;1.90;;
69485;SDS011;56677;51.710;5.366;2023-05-07T06:19:23;3.85;;;1.85;;
69485;SDS011;56677;51.710;5.366;2023-05-07T06:21:48;2.25;;;1.70;;
69485;SDS011;56677;51.710;5.366;2023-05-07T06:24:13;2.87;;;1.67;;
69485;SDS011;56677;51.710;5.366;2023-05-07T06:26:38;3.67;;;1.80;;
69485;SDS011;56677;51.710;5.366;2023-05-07T06:29:03;3.75;;;2.20;;
69485;SDS011;56677;51.710;5.366;2023-05-07T06:31:29;4.18;;;2.55;;
69485;SDS011;56677;51.710;5.366;2023-05-07T06:33:54;4.10;;;2.60;;
69485;SDS011;56677;51.710;5.366;2023-05-07T06:36:20;4.13;;;2.13;;
69485;SDS011;56677;51.710;5.366;2023-05-07T06:38:45;3.25;;;2.00;;
69485;SDS011;56677;51.710;5.366;2023-05-07T06:41:10;4.40;;;2.28;;
69485;SDS011;56677;51.710;5.366;2023-05-07T06:43:35;3.05;;;1.77;;
69485;SDS011;56677;51.710;5.366;2023-05-07T06:46:00;4.87;;;2.17;;
69485;SDS011;56677;51.710;5.366;2023-05-07T06:48:25;3.90;;;2.07;;
69485;SDS011;56677;51.710;5.366;2023-05-07T06:50:50;2.63;;;1.80;;
69485;SDS011;56677;51.710;5.366;2023-05-07T06:53:15;3.42;;;2.00;;
69485;SDS011;56677;51.710;5.366;2023-05-07T06:55:41;3.42;;;1.92;;
69485;SDS011;56677;51.710;5.366;2023-05-07T06:58:06;4.10;;;1.90;;
69485;SDS011;56677;51.710;5.366;2023-05-07T07:00:31;4.53;;;1.90;;
69485;SDS011;56677;51.710;5.366;2023-05-07T07:02:56;4.80;;;1.80;;
69485;SDS011;56677;51.710;5.366;2023-05-07T07:05:21;3.37;;;1.80;;
69485;SDS011;56677;51.710;5.366;2023-05-07T07:07:46;3.13;;;2.03;;
69485;SDS011;56677;51.710;5.366;2023-05-07T07:10:11;3.83;;;2.00;;
69485;SDS011;56677;51.710;5.366;2023-05-07T07:12:36;3.00;;;1.90;;
69485;SDS011;56677;51.710;5.366;2023-05-07T07:15:02;3.73;;;2.20;;
69485;SDS011;56677;51.710;5.366;2023-05-07T07:17:27;4.13;;;1.97;;
69485;SDS011;56677;51.710;5.366;2023-05-07T07:19:52;3.90;;;1.92;;
69485;SDS011;56677;51.710;5.366;2023-05-07T07:22:17;6.05;;;2.28;;
69485;SDS011;56677;51.710;5.366;2023-05-07T07:24:42;5.07;;;2.30;;
69485;SDS011;56677;51.710;5.366;2023-05-07T07:27:07;4.47;;;2.03;;
69485;SDS011;56677;51.710;5.366;2023-05-07T07:29:32;6.07;;;2.15;;
69485;SDS011;56677;51.710;5.366;2023-05-07T07:31:57;8.38;;;2.30;;
69485;SDS011;56677;51.710;5.366;2023-05-07T07:34:23;4.70;;;2.50;;
69485;SDS011;56677;51.710;5.366;2023-05-07T07:36:48;4.88;;;2.45;;
69485;SDS011;56677;51.710;5.366;2023-05-07T07:39:13;4.65;;;2.20;;
69485;SDS011;56677;51.710;5.366;2023-05-07T07:41:38;11.37;;;2.20;;
69485;SDS011;56677;51.710;5.366;2023-05-07T07:44:03;7.30;;;2.93;;
69485;SDS011;56677;51.710;5.366;2023-05-07T07:46:28;6.55;;;2.30;;
69485;SDS011;56677;51.710;5.366;2023-05-07T07:48:53;10.20;;;2.35;;
69485;SDS011;56677;51.710;5.366;2023-05-07T07:51:18;7.00;;;2.28;;
69485;SDS011;56677;51.710;5.366;2023-05-07T07:53:44;7.28;;;2.10;;
69485;SDS011;56677;51.710;5.366;2023-05-07T07:56:09;5.65;;;2.28;;
69485;SDS011;56677;51.710;5.366;2023-05-07T07:58:34;7.57;;;2.60;;
69485;SDS011;56677;51.710;5.366;2023-05-07T08:00:59;6.60;;;2.58;;
69485;SDS011;56677;51.710;5.366;2023-05-07T08:03:24;8.88;;;2.83;;
69485;SDS011;56677;51.710;5.366;2023-05-07T08:05:49;6.85;;;2.75;;
69485;SDS011;56677;51.710;5.366;2023-05-07T08:08:14;7.53;;;3.10;;
69485;SDS011;56677;51.710;5.366;2023-05-07T08:10:39;5.23;;;2.50;;
69485;SDS011;56677;51.710;5.366;2023-05-07T08:13:05;9.77;;;3.50;;
69485;SDS011;56677;51.710;5.366;2023-05-07T08:15:30;4.97;;;2.70;;
69485;SDS011;56677;51.710;5.366;2023-05-07T08:17:55;5.33;;;2.40;;
69485;SDS011;56677;51.710;5.366;2023-05-07T08:20:20;4.78;;;2.83;;
69485;SDS011;56677;51.710;5.366;2023-05-07T08:22:45;6.50;;;2.93;;
69485;SDS011;56677;51.710;5.366;2023-05-07T08:25:10;7.40;;;2.67;;
69485;SDS011;56677;51.710;5.366;2023-05-07T08:27:35;10.68;;;2.53;;
69485;SDS011;56677;51.710;5.366;2023-05-07T08:30:01;8.13;;;4.32;;
69485;SDS011;56677;51.710;5.366;2023-05-07T08:32:26;12.83;;;3.80;;
69485;SDS011;56677;51.710;5.366;2023-05-07T08:34:51;9.15;;;3.35;;
69485;SDS011;56677;51.710;5.366;2023-05-07T08:37:16;6.03;;;3.13;;
69485;SDS011;56677;51.710;5.366;2023-05-07T08:39:41;9.07;;;3.80;;
69485;SDS011;56677;51.710;5.366;2023-05-07T08:42:06;8.70;;;4.10;;
69485;SDS011;56677;51.710;5.366;2023-05-07T08:44:34;5.75;;;3.50;;
69485;SDS011;56677;51.710;5.366;2023-05-07T08:46:59;9.73;;;3.90;;
69485;SDS011;56677;51.710;5.366;2023-05-07T08:49:25;6.88;;;2.92;;
69485;SDS011;56677;51.710;5.366;2023-05-07T08:51:50;5.77;;;2.20;;
69485;SDS011;56677;51.710;5.366;2023-05-07T08:54:16;4.43;;;2.17;;
69485;SDS011;56677;51.710;5.366;2023-05-07T08:56:41;7.87;;;3.13;;
69485;SDS011;56677;51.710;5.366;2023-05-07T08:59:06;5.80;;;2.90;;
69485;SDS011;56677;51.710;5.366;2023-05-07T09:01:31;6.57;;;2.58;;
69485;SDS011;56677;51.710;5.366;2023-05-07T09:03:57;7.95;;;2.72;;
69485;SDS011;56677;51.710;5.366;2023-05-07T09:06:22;9.07;;;2.07;;
69485;SDS011;56677;51.710;5.366;2023-05-07T09:08:50;6.33;;;2.50;;
69485;SDS011;56677;51.710;5.366;2023-05-07T09:11:16;6.45;;;2.70;;
69485;SDS011;56677;51.710;5.366;2023-05-07T09:13:41;6.55;;;2.10;;
69485;SDS011;56677;51.710;5.366;2023-05-07T09:16:10;6.80;;;2.60;;
69485;SDS011;56677;51.710;5.366;2023-05-07T09:18:40;6.88;;;2.42;;
69485;SDS011;56677;51.710;5.366;2023-05-07T09:21:05;5.78;;;2.85;;
69485;SDS011;56677;51.710;5.366;2023-05-07T09:23:30;5.78;;;2.47;;
69485;SDS011;56677;51.710;5.366;2023-05-07T09:25:59;6.10;;;2.20;;
69485;SDS011;56677;51.710;5.366;2023-05-07T09:28:24;6.32;;;2.30;;
69485;SDS011;56677;51.710;5.366;2023-05-07T09:30:49;6.50;;;2.30;;
69485;SDS011;56677;51.710;5.366;2023-05-07T09:33:15;7.88;;;3.15;;
69485;SDS011;56677;51.710;5.366;2023-05-07T09:35:40;5.70;;;2.30;;
69485;SDS011;56677;51.710;5.366;2023-05-07T09:38:05;6.07;;;2.67;;
69485;SDS011;56677;51.710;5.366;2023-05-07T09:40:30;6.53;;;2.67;;
69485;SDS011;56677;51.710;5.366;2023-05-07T09:42:56;5.30;;;2.38;;
69485;SDS011;56677;51.710;5.366;2023-05-07T09:45:30;8.70;;;3.63;;
69485;SDS011;56677;51.710;5.366;2023-05-07T09:47:57;3.58;;;2.17;;
69485;SDS011;56677;51.710;5.366;2023-05-07T09:50:26;4.73;;;2.53;;
69485;SDS011;56677;51.710;5.366;2023-05-07T09:52:51;6.93;;;2.63;;
69485;SDS011;56677;51.710;5.366;2023-05-07T09:55:17;6.97;;;3.17;;
69485;SDS011;56677;51.710;5.366;2023-05-07T09:57:42;5.45;;;2.80;;
69485;SDS011;56677;51.710;5.366;2023-05-07T10:00:08;5.37;;;2.57;;
69485;SDS011;56677;51.710;5.366;2023-05-07T10:02:33;6.70;;;2.63;;
69485;SDS011;56677;51.710;5.366;2023-05-07T10:05:00;4.20;;;2.30;;
69485;SDS011;56677;51.710;5.366;2023-05-07T10:07:25;4.30;;;2.30;;
69485;SDS011;56677;51.710;5.366;2023-05-07T10:09:50;7.57;;;2.38;;
69485;SDS011;56677;51.710;5.366;2023-05-07T10:12:15;5.40;;;2.40;;
69485;SDS011;56677;51.710;5.366;2023-05-07T10:14:41;5.93;;;2.40;;
69485;SDS011;56677;51.710;5.366;2023-05-07T10:17:06;4.75;;;2.42;;
69485;SDS011;56677;51.710;5.366;2023-05-07T10:19:32;7.50;;;2.30;;
69485;SDS011;56677;51.710;5.366;2023-05-07T10:21:59;5.87;;;2.30;;
69485;SDS011;56677;51.710;5.366;2023-05-07T10:24:27;9.55;;;2.17;;
69485;SDS011;56677;51.710;5.366;2023-05-07T10:26:53;6.22;;;2.30;;
69485;SDS011;56677;51.710;5.366;2023-05-07T10:29:31;6.28;;;2.28;;
69485;SDS011;56677;51.710;5.366;2023-05-07T10:34:24;8.98;;;3.10;;
69485;SDS011;56677;51.710;5.366;2023-05-07T10:36:51;9.38;;;2.80;;
69485;SDS011;56677;51.710;5.366;2023-05-07T10:39:17;4.80;;;2.47;;
69485;SDS011;56677;51.710;5.366;2023-05-07T10:41:42;5.17;;;2.40;;
69485;SDS011;56677;51.710;5.366;2023-05-07T10:44:07;6.37;;;2.30;;
69485;SDS011;56677;51.710;5.366;2023-05-07T10:46:32;5.22;;;2.33;;
69485;SDS011;56677;51.710;5.366;2023-05-07T10:51:25;5.55;;;2.10;;
69485;SDS011;56677;51.710;5.366;2023-05-07T10:54:33;5.43;;;2.10;;
69485;SDS011;56677;51.710;5.366;2023-05-07T10:56:41;7.00;;;2.40;;
69485;SDS011;56677;51.710;5.366;2023-05-07T11:01:52;7.60;;;2.97;;
69485;SDS011;56677;51.710;5.366;2023-05-07T11:04:17;5.07;;;2.40;;
69485;SDS011;56677;51.710;5.366;2023-05-07T11:06:49;9.37;;;5.07;;
69485;SDS011;56677;51.710;5.366;2023-05-07T11:09:53;16.55;;;9.43;;
69485;SDS011;56677;51.710;5.366;2023-05-07T11:12:12;7.93;;;4.38;;
69485;SDS011;56677;51.710;5.366;2023-05-07T11:17:05;12.75;;;5.55;;
69485;SDS011;56677;51.710;5.366;2023-05-07T11:22:35;7.50;;;3.80;;
69485;SDS011;56677;51.710;5.366;2023-05-07T11:25:04;8.55;;;3.85;;
69485;SDS011;56677;51.710;5.366;2023-05-07T11:27:29;8.37;;;3.37;;
69485;SDS011;56677;51.710;5.366;2023-05-07T11:29:54;6.90;;;3.25;;
69485;SDS011;56677;51.710;5.366;2023-05-07T11:32:23;6.30;;;3.43;;
69485;SDS011;56677;51.710;5.366;2023-05-07T11:34:51;6.15;;;3.20;;
69485;SDS011;56677;51.710;5.366;2023-05-07T11:37:17;6.82;;;3.33;;
69485;SDS011;56677;51.710;5.366;2023-05-07T11:39:42;5.25;;;2.97;;
69485;SDS011;56677;51.710;5.366;2023-05-07T11:42:07;5.53;;;2.97;;
69485;SDS011;56677;51.710;5.366;2023-05-07T11:44:49;6.35;;;2.97;;
69485;SDS011;56677;51.710;5.366;2023-05-07T11:47:18;6.47;;;3.00;;
69485;SDS011;56677;51.710;5.366;2023-05-07T11:49:43;5.95;;;3.05;;
69485;SDS011;56677;51.710;5.366;2023-05-07T11:52:08;5.57;;;3.30;;
69485;SDS011;56677;51.710;5.366;2023-05-07T11:54:36;5.53;;;3.20;;
69485;SDS011;56677;51.710;5.366;2023-05-07T11:57:01;7.80;;;3.10;;
69485;SDS011;56677;51.710;5.366;2023-05-07T11:59:27;6.47;;;3.17;;
69485;SDS011;56677;51.710;5.366;2023-05-07T12:01:52;4.20;;;2.90;;
69485;SDS011;56677;51.710;5.366;2023-05-07T12:04:19;4.57;;;2.70;;
69485;SDS011;56677;51.710;5.366;2023-05-07T12:06:44;5.38;;;3.20;;
69485;SDS011;56677;51.710;5.366;2023-05-07T12:09:09;5.15;;;2.65;;
69485;SDS011;56677;51.710;5.366;2023-05-07T12:11:34;5.00;;;2.53;;
69485;SDS011;56677;51.710;5.366;2023-05-07T12:13:59;6.07;;;2.80;;
69485;SDS011;56677;51.710;5.366;2023-05-07T12:16:24;6.88;;;2.80;;
69485;SDS011;56677;51.710;5.366;2023-05-07T12:18:50;4.70;;;3.20;;
69485;SDS011;56677;51.710;5.366;2023-05-07T12:21:15;4.73;;;2.70;;
69485;SDS011;56677;51.710;5.366;2023-05-07T12:23:40;4.70;;;2.93;;
69485;SDS011;56677;51.710;5.366;2023-05-07T12:26:05;5.27;;;3.17;;
69485;SDS011;56677;51.710;5.366;2023-05-07T12:28:30;5.20;;;2.75;;
69485;SDS011;56677;51.710;5.366;2023-05-07T12:30:56;6.28;;;2.88;;
69485;SDS011;56677;51.710;5.366;2023-05-07T12:33:25;5.63;;;2.83;;
69485;SDS011;56677;51.710;5.366;2023-05-07T12:35:50;9.52;;;2.88;;
69485;SDS011;56677;51.710;5.366;2023-05-07T12:38:16;5.00;;;2.70;;
69485;SDS011;56677;51.710;5.366;2023-05-07T12:40:48;4.20;;;2.30;;
69485;SDS011;56677;51.710;5.366;2023-05-07T12:45:45;5.53;;;2.80;;
69485;SDS011;56677;51.710;5.366;2023-05-07T12:48:11;5.53;;;3.23;;
69485;SDS011;56677;51.710;5.366;2023-05-07T12:50:37;4.95;;;2.78;;
69485;SDS011;56677;51.710;5.366;2023-05-07T12:53:05;5.18;;;2.50;;
69485;SDS011;56677;51.710;5.366;2023-05-07T12:55:30;6.07;;;2.70;;
69485;SDS011;56677;51.710;5.366;2023-05-07T12:57:55;5.53;;;3.00;;
69485;SDS011;56677;51.710;5.366;2023-05-07T13:00:36;4.38;;;2.20;;
69485;SDS011;56677;51.710;5.366;2023-05-07T13:03:01;5.00;;;2.80;;
69485;SDS011;56677;51.710;5.366;2023-05-07T13:05:27;7.70;;;3.40;;
69485;SDS011;56677;51.710;5.366;2023-05-07T13:07:52;6.10;;;3.08;;
69485;SDS011;56677;51.710;5.366;2023-05-07T13:10:17;4.67;;;2.33;;
69485;SDS011;56677;51.710;5.366;2023-05-07T13:12:42;5.90;;;2.40;;
69485;SDS011;56677;51.710;5.366;2023-05-07T13:15:08;5.53;;;2.40;;
69485;SDS011;56677;51.710;5.366;2023-05-07T13:17:33;4.43;;;2.67;;
69485;SDS011;56677;51.710;5.366;2023-05-07T13:19:58;6.80;;;2.80;;
69485;SDS011;56677;51.710;5.366;2023-05-07T13:22:23;7.72;;;2.33;;
69485;SDS011;56677;51.710;5.366;2023-05-07T13:24:48;5.70;;;2.70;;
69485;SDS011;56677;51.710;5.366;2023-05-07T13:27:13;8.20;;;3.30;;
69485;SDS011;56677;51.710;5.366;2023-05-07T13:29:38;7.70;;;3.42;;
69485;SDS011;56677;51.710;5.366;2023-05-07T13:32:04;6.75;;;3.33;;
69485;SDS011;56677;51.710;5.366;2023-05-07T13:34:29;5.20;;;3.10;;
69485;SDS011;56677;51.710;5.366;2023-05-07T13:36:54;5.72;;;3.63;;
69485;SDS011;56677;51.710;5.366;2023-05-07T13:39:19;7.15;;;4.45;;
69485;SDS011;56677;51.710;5.366;2023-05-07T13:41:44;11.00;;;5.30;;
69485;SDS011;56677;51.710;5.366;2023-05-07T13:44:09;14.93;;;4.60;;
69485;SDS011;56677;51.710;5.366;2023-05-07T13:46:34;6.75;;;4.40;;
69485;SDS011;56677;51.710;5.366;2023-05-07T13:48:59;7.50;;;4.10;;
69485;SDS011;56677;51.710;5.366;2023-05-07T13:51:25;11.80;;;3.73;;
69485;SDS011;56677;51.710;5.366;2023-05-07T13:53:50;8.23;;;3.77;;
69485;SDS011;56677;51.710;5.366;2023-05-07T13:56:15;7.15;;;3.60;;
69485;SDS011;56677;51.710;5.366;2023-05-07T13:58:40;7.17;;;3.93;;
69485;SDS011;56677;51.710;5.366;2023-05-07T14:01:05;9.17;;;3.83;;
69485;SDS011;56677;51.710;5.366;2023-05-07T14:03:31;9.17;;;3.80;;
69485;SDS011;56677;51.710;5.366;2023-05-07T14:05:56;6.23;;;3.10;;
69485;SDS011;56677;51.710;5.366;2023-05-07T14:08:21;14.23;;;3.53;;
69485;SDS011;56677;51.710;5.366;2023-05-07T14:10:46;9.35;;;3.17;;
69485;SDS011;56677;51.710;5.366;2023-05-07T14:13:11;12.23;;;3.60;;
69485;SDS011;56677;51.710;5.366;2023-05-07T14:15:36;9.30;;;3.43;;
69485;SDS011;56677;51.710;5.366;2023-05-07T14:18:01;9.03;;;3.20;;
69485;SDS011;56677;51.710;5.366;2023-05-07T14:20:27;9.80;;;3.20;;
69485;SDS011;56677;51.710;5.366;2023-05-07T14:22:52;7.68;;;3.15;;
69485;SDS011;56677;51.710;5.366;2023-05-07T14:25:17;6.90;;;2.97;;
69485;SDS011;56677;51.710;5.366;2023-05-07T14:27:42;8.90;;;3.30;;
69485;SDS011;56677;51.710;5.366;2023-05-07T14:30:07;6.70;;;2.50;;
69485;SDS011;56677;51.710;5.366;2023-05-07T14:32:33;8.37;;;3.00;;
69485;SDS011;56677;51.710;5.366;2023-05-07T14:34:58;11.20;;;2.80;;
69485;SDS011;56677;51.710;5.366;2023-05-07T14:37:23;8.90;;;3.00;;
69485;SDS011;56677;51.710;5.366;2023-05-07T14:39:48;9.70;;;2.77;;
69485;SDS011;56677;51.710;5.366;2023-05-07T14:42:13;12.18;;;3.13;;
69485;SDS011;56677;51.710;5.366;2023-05-07T14:44:38;9.13;;;3.05;;
69485;SDS011;56677;51.710;5.366;2023-05-07T14:47:04;11.20;;;3.03;;
69485;SDS011;56677;51.710;5.366;2023-05-07T14:49:29;10.45;;;3.25;;
69485;SDS011;56677;51.710;5.366;2023-05-07T14:51:56;7.65;;;3.10;;
69485;SDS011;56677;51.710;5.366;2023-05-07T14:54:21;14.57;;;7.30;;
69485;SDS011;56677;51.710;5.366;2023-05-07T14:56:47;17.05;;;8.77;;
69485;SDS011;56677;51.710;5.366;2023-05-07T14:59:12;12.13;;;5.00;;
69485;SDS011;56677;51.710;5.366;2023-05-07T15:01:37;14.63;;;5.03;;
69485;SDS011;56677;51.710;5.366;2023-05-07T15:04:03;11.85;;;4.80;;
69485;SDS011;56677;51.710;5.366;2023-05-07T15:06:28;14.10;;;5.73;;
69485;SDS011;56677;51.710;5.366;2023-05-07T15:08:53;13.68;;;6.07;;
69485;SDS011;56677;51.710;5.366;2023-05-07T15:11:18;8.73;;;4.93;;
69485;SDS011;56677;51.710;5.366;2023-05-07T15:13:43;14.23;;;4.80;;
69485;SDS011;56677;51.710;5.366;2023-05-07T15:16:08;17.63;;;5.53;;
69485;SDS011;56677;51.710;5.366;2023-05-07T15:18:33;9.30;;;4.80;;
69485;SDS011;56677;51.710;5.366;2023-05-07T15:20:59;11.63;;;5.20;;
69485;SDS011;56677;51.710;5.366;2023-05-07T15:23:24;14.13;;;4.97;;
69485;SDS011;56677;51.710;5.366;2023-05-07T15:25:49;11.97;;;4.53;;
69485;SDS011;56677;51.710;5.366;2023-05-07T15:28:14;8.97;;;4.40;;
69485;SDS011;56677;51.710;5.366;2023-05-07T15:30:39;23.63;;;14.60;;
69485;SDS011;56677;51.710;5.366;2023-05-07T15:33:04;22.60;;;15.03;;
69485;SDS011;56677;51.710;5.366;2023-05-07T15:35:29;20.13;;;13.27;;
69485;SDS011;56677;51.710;5.366;2023-05-07T15:37:55;18.70;;;9.70;;
69485;SDS011;56677;51.710;5.366;2023-05-07T15:40:20;14.82;;;8.55;;
69485;SDS011;56677;51.710;5.366;2023-05-07T15:42:45;12.38;;;8.10;;
69485;SDS011;56677;51.710;5.366;2023-05-07T15:45:10;12.03;;;7.80;;
69485;SDS011;56677;51.710;5.366;2023-05-07T15:47:36;15.37;;;7.43;;
69485;SDS011;56677;51.710;5.366;2023-05-07T15:50:01;12.50;;;7.17;;
69485;SDS011;56677;51.710;5.366;2023-05-07T15:52:27;11.82;;;6.97;;
69485;SDS011;56677;51.710;5.366;2023-05-07T15:54:52;12.03;;;6.97;;
69485;SDS011;56677;51.710;5.366;2023-05-07T15:57:17;12.63;;;6.90;;
69485;SDS011;56677;51.710;5.366;2023-05-07T15:59:42;13.63;;;6.43;;
69485;SDS011;56677;51.710;5.366;2023-05-07T16:02:07;10.18;;;6.20;;
69485;SDS011;56677;51.710;5.366;2023-05-07T16:04:32;11.93;;;5.43;;
69485;SDS011;56677;51.710;5.366;2023-05-07T16:06:57;10.57;;;5.43;;
69485;SDS011;56677;51.710;5.366;2023-05-07T16:09:23;14.82;;;6.25;;
69485;SDS011;56677;51.710;5.366;2023-05-07T16:11:48;12.15;;;5.88;;
69485;SDS011;56677;51.710;5.366;2023-05-07T16:14:13;13.50;;;5.68;;
69485;SDS011;56677;51.710;5.366;2023-05-07T16:16:38;16.13;;;6.33;;
69485;SDS011;56677;51.710;5.366;2023-05-07T16:19:03;10.10;;;5.07;;
69485;SDS011;56677;51.710;5.366;2023-05-07T16:21:28;13.23;;;6.47;;
69485;SDS011;56677;51.710;5.366;2023-05-07T16:23:53;9.93;;;5.60;;
69485;SDS011;56677;51.710;5.366;2023-05-07T16:26:18;11.90;;;5.30;;
69485;SDS011;56677;51.710;5.366;2023-05-07T16:28:44;12.93;;;5.83;;
69485;SDS011;56677;51.710;5.366;2023-05-07T16:31:09;10.65;;;5.72;;
69485;SDS011;56677;51.710;5.366;2023-05-07T16:33:34;10.90;;;5.37;;
69485;SDS011;56677;51.710;5.366;2023-05-07T16:35:59;9.33;;;5.27;;
69485;SDS011;56677;51.710;5.366;2023-05-07T16:38:24;9.30;;;4.82;;
69485;SDS011;56677;51.710;5.366;2023-05-07T16:40:49;12.65;;;5.22;;
69485;SDS011;56677;51.710;5.366;2023-05-07T16:43:14;10.80;;;5.53;;
69485;SDS011;56677;51.710;5.366;2023-05-07T16:45:40;10.52;;;5.47;;
69485;SDS011;56677;51.710;5.366;2023-05-07T16:48:05;15.20;;;5.80;;
69485;SDS011;56677;51.710;5.366;2023-05-07T16:50:30;14.00;;;6.10;;
69485;SDS011;56677;51.710;5.366;2023-05-07T16:52:55;10.75;;;4.90;;
69485;SDS011;56677;51.710;5.366;2023-05-07T16:55:20;8.50;;;4.93;;
69485;SDS011;56677;51.710;5.366;2023-05-07T16:57:45;10.73;;;4.83;;
69485;SDS011;56677;51.710;5.366;2023-05-07T17:00:11;7.75;;;4.93;;
69485;SDS011;56677;51.710;5.366;2023-05-07T17:02:36;8.75;;;5.00;;
69485;SDS011;56677;51.710;5.366;2023-05-07T17:05:02;9.82;;;4.82;;
69485;SDS011;56677;51.710;5.366;2023-05-07T17:07:27;11.83;;;5.07;;
69485;SDS011;56677;51.710;5.366;2023-05-07T17:09:52;12.30;;;4.70;;
69485;SDS011;56677;51.710;5.366;2023-05-07T17:12:17;8.87;;;4.73;;
69485;SDS011;56677;51.710;5.366;2023-05-07T17:14:42;10.90;;;4.73;;
69485;SDS011;56677;51.710;5.366;2023-05-07T17:17:07;12.32;;;4.90;;
69485;SDS011;56677;51.710;5.366;2023-05-07T17:19:33;9.25;;;5.00;;
69485;SDS011;56677;51.710;5.366;2023-05-07T17:21:59;13.23;;;4.60;;
69485;SDS011;56677;51.710;5.366;2023-05-07T17:24:25;15.27;;;5.03;;
69485;SDS011;56677;51.710;5.366;2023-05-07T17:26:50;9.48;;;4.10;;
69485;SDS011;56677;51.710;5.366;2023-05-07T17:29:15;11.77;;;5.00;;
69485;SDS011;56677;51.710;5.366;2023-05-07T17:31:40;7.82;;;4.30;;
69485;SDS011;56677;51.710;5.366;2023-05-07T17:34:05;8.30;;;4.53;;
69485;SDS011;56677;51.710;5.366;2023-05-07T17:36:30;8.80;;;4.30;;
69485;SDS011;56677;51.710;5.366;2023-05-07T17:38:55;9.25;;;4.20;;
69485;SDS011;56677;51.710;5.366;2023-05-07T17:41:20;12.63;;;4.38;;
69485;SDS011;56677;51.710;5.366;2023-05-07T17:43:45;8.07;;;4.22;;
69485;SDS011;56677;51.710;5.366;2023-05-07T17:46:11;7.50;;;3.85;;
69485;SDS011;56677;51.710;5.366;2023-05-07T17:48:36;6.63;;;4.25;;
69485;SDS011;56677;51.710;5.366;2023-05-07T17:51:01;7.90;;;4.40;;
69485;SDS011;56677;51.710;5.366;2023-05-07T17:53:26;8.02;;;3.80;;
69485;SDS011;56677;51.710;5.366;2023-05-07T17:55:51;6.63;;;4.13;;
69485;SDS011;56677;51.710;5.366;2023-05-07T17:58:17;7.73;;;4.20;;
69485;SDS011;56677;51.710;5.366;2023-05-07T18:00:42;7.07;;;3.80;;
69485;SDS011;56677;51.710;5.366;2023-05-07T18:03:07;7.17;;;3.80;;
69485;SDS011;56677;51.710;5.366;2023-05-07T18:05:34;7.97;;;3.67;;
69485;SDS011;56677;51.710;5.366;2023-05-07T18:07:59;7.68;;;3.92;;
69485;SDS011;56677;51.710;5.366;2023-05-07T18:10:24;8.35;;;3.70;;
69485;SDS011;56677;51.710;5.366;2023-05-07T18:12:49;8.80;;;3.88;;
69485;SDS011;56677;51.710;5.366;2023-05-07T18:15:14;7.88;;;3.63;;
69485;SDS011;56677;51.710;5.366;2023-05-07T18:17:40;8.47;;;3.97;;
69485;SDS011;56677;51.710;5.366;2023-05-07T18:20:05;8.10;;;3.55;;
69485;SDS011;56677;51.710;5.366;2023-05-07T18:22:30;8.40;;;3.63;;
69485;SDS011;56677;51.710;5.366;2023-05-07T18:24:56;8.57;;;3.87;;
69485;SDS011;56677;51.710;5.366;2023-05-07T18:27:21;8.77;;;4.30;;
69485;SDS011;56677;51.710;5.366;2023-05-07T18:29:46;6.75;;;3.30;;
69485;SDS011;56677;51.710;5.366;2023-05-07T18:32:11;8.95;;;3.35;;
69485;SDS011;56677;51.710;5.366;2023-05-07T18:34:36;6.93;;;3.47;;
69485;SDS011;56677;51.710;5.366;2023-05-07T18:37:02;7.78;;;3.83;;
69485;SDS011;56677;51.710;5.366;2023-05-07T18:39:27;7.90;;;3.20;;
69485;SDS011;56677;51.710;5.366;2023-05-07T18:41:52;6.03;;;3.17;;
69485;SDS011;56677;51.710;5.366;2023-05-07T18:44:17;9.13;;;3.70;;
69485;SDS011;56677;51.710;5.366;2023-05-07T18:46:42;6.03;;;3.58;;
69485;SDS011;56677;51.710;5.366;2023-05-07T18:49:07;7.18;;;3.40;;
69485;SDS011;56677;51.710;5.366;2023-05-07T18:51:32;4.97;;;3.03;;
69485;SDS011;56677;51.710;5.366;2023-05-07T18:53:57;7.28;;;3.30;;
69485;SDS011;56677;51.710;5.366;2023-05-07T18:56:23;5.88;;;3.30;;
69485;SDS011;56677;51.710;5.366;2023-05-07T18:58:48;6.67;;;3.40;;
69485;SDS011;56677;51.710;5.366;2023-05-07T19:01:13;5.88;;;3.20;;
69485;SDS011;56677;51.710;5.366;2023-05-07T19:03:38;7.05;;;3.35;;
69485;SDS011;56677;51.710;5.366;2023-05-07T19:06:03;5.80;;;3.38;;
69485;SDS011;56677;51.710;5.366;2023-05-07T19:08:28;5.97;;;3.47;;
69485;SDS011;56677;51.710;5.366;2023-05-07T19:10:54;8.40;;;3.40;;
69485;SDS011;56677;51.710;5.366;2023-05-07T19:13:19;4.53;;;2.88;;
69485;SDS011;56677;51.710;5.366;2023-05-07T19:15:44;4.93;;;3.08;;
69485;SDS011;56677;51.710;5.366;2023-05-07T19:18:09;7.55;;;3.40;;
69485;SDS011;56677;51.710;5.366;2023-05-07T19:20:35;5.47;;;3.23;;
69485;SDS011;56677;51.710;5.366;2023-05-07T19:23:00;5.45;;;3.05;;
69485;SDS011;56677;51.710;5.366;2023-05-07T19:25:25;6.82;;;3.42;;
69485;SDS011;56677;51.710;5.366;2023-05-07T19:27:50;4.50;;;2.60;;
69485;SDS011;56677;51.710;5.366;2023-05-07T19:30:15;4.90;;;2.80;;
69485;SDS011;56677;51.710;5.366;2023-05-07T19:32:41;6.13;;;2.67;;
69485;SDS011;56677;51.710;5.366;2023-05-07T19:35:06;5.37;;;2.83;;
69485;SDS011;56677;51.710;5.366;2023-05-07T19:37:31;4.37;;;2.90;;
69485;SDS011;56677;51.710;5.366;2023-05-07T19:39:56;4.97;;;2.90;;
69485;SDS011;56677;51.710;5.366;2023-05-07T19:42:21;5.45;;;2.40;;
69485;SDS011;56677;51.710;5.366;2023-05-07T19:44:46;4.78;;;2.95;;
69485;SDS011;56677;51.710;5.366;2023-05-07T19:47:11;4.85;;;3.05;;
69485;SDS011;56677;51.710;5.366;2023-05-07T19:49:37;5.25;;;2.90;;
69485;SDS011;56677;51.710;5.366;2023-05-07T19:52:02;4.38;;;2.95;;
69485;SDS011;56677;51.710;5.366;2023-05-07T19:54:27;5.30;;;3.03;;
69485;SDS011;56677;51.710;5.366;2023-05-07T19:56:53;5.23;;;3.17;;
69485;SDS011;56677;51.710;5.366;2023-05-07T19:59:18;4.45;;;2.85;;
69485;SDS011;56677;51.710;5.366;2023-05-07T20:01:44;4.20;;;2.80;;
69485;SDS011;56677;51.710;5.366;2023-05-07T20:04:09;5.35;;;2.88;;